»·PEaware :: SCX720 KBUR-KIFP

SCX720 :: KBUR-KIFP

FLIGHT INFORMATION

Flight Status: Arrived
Operator:
Sun Country Airlines
More flights by this operator :: More flights under this callsign
Pilot: Shawn N. (11060)
Aircraft: BOEING 737-800
(B738)
More flights by this aircraft type
Origin: KBUR Bob Hope-Burbank
United States
Destination: KIFP Laughlin/Bullhead Intl
United States
More flights between these airports :: More routes between these airports
Route: +SLAPP1 HEC EED
File this flight plan on PilotEdge
Remarks:
Altitude:
(Current/Filed)
27,000ft
Speed:
(Current/Filed)
450kts
Departed: 18-Jun-18 03:29 PM
Arrived: 18-Jun-18 04:15 PM
Distance/Time
Traveled:
196nm/0:45
Distance/Time
To Go:
Arrived

Flight Plot

Page will automatically refresh every two minutes.

Flight plan parsing failed; only flown route is shown


Map Options




Map Legend


Flown Route
Filed Route
Departure Airport
Arrival Airport
Navaid (VOR, NDB)
Fix

Horizontal Profiles

Position Reports

Time Latitude Longitude Heading Altitude Ground
Speed
18-Jun-18 15:00 34.196800 -118.352863 180 784ft 0kts
18-Jun-18 15:01 34.196800 -118.352863 180 784ft 0kts
18-Jun-18 15:02 34.196800 -118.352863 180 784ft 0kts
18-Jun-18 15:03 34.196800 -118.352863 180 784ft 0kts
18-Jun-18 15:04 34.196800 -118.352863 180 784ft 0kts
18-Jun-18 15:05 34.196800 -118.352863 181 784ft 0kts
18-Jun-18 15:06 34.196800 -118.352863 180 784ft 0kts
18-Jun-18 15:07 34.196800 -118.352863 180 784ft 0kts
18-Jun-18 15:08 34.196800 -118.352863 180 784ft 0kts
18-Jun-18 15:09 34.196800 -118.352863 180 784ft 0kts
18-Jun-18 15:10 34.196800 -118.352863 180 784ft 0kts
18-Jun-18 15:11 34.196800 -118.352863 180 784ft 0kts
18-Jun-18 15:12 34.196800 -118.352863 180 784ft 0kts
18-Jun-18 15:13 34.196800 -118.352863 180 784ft 0kts
18-Jun-18 15:14 34.196800 -118.352863 180 784ft 0kts
18-Jun-18 15:15 34.196800 -118.352863 180 784ft 0kts
18-Jun-18 15:16 34.196800 -118.352863 180 784ft 0kts
18-Jun-18 15:17 34.197038 -118.352828 212 784ft 2kts
18-Jun-18 15:18 34.197189 -118.352441 271 784ft 0kts
18-Jun-18 15:19 34.197189 -118.352442 271 784ft 0kts
18-Jun-18 15:20 34.197189 -118.352442 271 784ft 0kts
18-Jun-18 15:21 34.197189 -118.352442 271 784ft 0kts
18-Jun-18 15:22 34.197189 -118.352442 271 784ft 0kts
18-Jun-18 15:23 34.197189 -118.352442 271 784ft 0kts
18-Jun-18 15:24 34.197178 -118.353150 264 784ft 9kts
18-Jun-18 15:25 34.198992 -118.355434 348 784ft 14kts
18-Jun-18 15:26 34.202910 -118.356501 346 784ft 19kts
18-Jun-18 15:27 34.208607 -118.358117 348 784ft 24kts
18-Jun-18 15:28 34.211411 -118.358918 329 784ft 1kts
18-Jun-18 15:29 34.210901 -118.360082 166 784ft 44kts
18-Jun-18 15:30 34.183799 -118.353672 186 1667ft 185kts
18-Jun-18 15:31 34.155614 -118.377040 220 2980ft 252kts
18-Jun-18 15:32 34.122464 -118.412957 221 4012ft 255kts
18-Jun-18 15:33 34.105133 -118.437460 248 4398ft 273kts
18-Jun-18 15:34 34.115580 -118.499815 313 7985ft 273kts
18-Jun-18 15:35 34.174764 -118.522444 352 10798ft 305kts
18-Jun-18 15:36 34.243493 -118.530119 352 13226ft 336kts
18-Jun-18 15:37 34.327373 -118.537783 352 13978ft 341kts
18-Jun-18 15:38 34.403903 -118.515938 50 14034ft 360kts
18-Jun-18 15:39 34.440341 -118.410329 69 14473ft 375kts
18-Jun-18 15:40 34.485595 -118.305021 37 18149ft 377kts
18-Jun-18 15:41 34.562388 -118.229965 34 19016ft 381kts
18-Jun-18 15:42 34.642512 -118.148814 45 19007ft 386kts
18-Jun-18 15:43 34.680941 -118.024827 75 20601ft 409kts
18-Jun-18 15:44 34.695346 -117.899195 84 23229ft 431kts
18-Jun-18 15:45 34.704063 -117.755631 84 25852ft 450kts
18-Jun-18 15:46 34.710371 -117.600430 85 27030ft 476kts
18-Jun-18 15:47 34.719051 -117.435405 82 27025ft 503kts
18-Jun-18 15:48 34.731520 -117.286604 82 27014ft 503kts
18-Jun-18 15:49 34.740519 -117.177898 82 27015ft 502kts
18-Jun-18 15:50 34.753507 -117.017386 82 26986ft 507kts
18-Jun-18 15:51 34.766920 -116.847867 82 26955ft 507kts
18-Jun-18 15:52 34.780091 -116.677931 82 26957ft 507kts
18-Jun-18 15:53 34.793033 -116.507425 82 26959ft 507kts
18-Jun-18 15:54 34.795893 -116.336596 90 26956ft 509kts
18-Jun-18 15:55 34.793794 -116.203107 90 26951ft 508kts
18-Jun-18 15:56 34.790291 -116.031432 90 27017ft 509kts
18-Jun-18 15:57 34.786902 -115.865847 90 27018ft 472kts
18-Jun-18 15:58 34.783838 -115.705628 90 27019ft 472kts
18-Jun-18 15:59 34.780990 -115.547418 90 25205ft 465kts
18-Jun-18 16:00 34.778487 -115.398001 90 23884ft 444kts
18-Jun-18 16:01 34.776561 -115.272644 90 23885ft 450kts
18-Jun-18 16:02 34.774394 -115.121573 90 22469ft 446kts
18-Jun-18 16:03 34.772435 -114.976346 91 18669ft 417kts
18-Jun-18 16:04 34.770733 -114.840724 91 14905ft 392kts
18-Jun-18 16:05 34.769201 -114.712728 90 11442ft 361kts
18-Jun-18 16:06 34.804514 -114.619980 23 10671ft 287kts
18-Jun-18 16:07 34.883816 -114.600091 352 9403ft 317kts
18-Jun-18 16:08 34.972113 -114.612130 351 5968ft 316kts
18-Jun-18 16:09 35.052025 -114.623789 351 4761ft 267kts
18-Jun-18 16:10 35.115199 -114.633197 351 4060ft 237kts
18-Jun-18 16:11 35.168257 -114.637165 10 3287ft 216kts
18-Jun-18 16:12 35.217622 -114.607652 64 2175ft 186kts
18-Jun-18 16:13 35.201858 -114.567228 156 1350ft 134kts
18-Jun-18 16:14 35.165778 -114.560120 176 719ft 131kts
18-Jun-18 16:15 35.151328 -114.558112 85 702ft 16kts
18-Jun-18 16:16 35.156030 -114.558028 355 702ft 25kts
18-Jun-18 16:17 35.162891 -114.558330 69 702ft 13kts
18-Jun-18 16:18 35.164320 -114.556235 86 702ft 0kts
18-Jun-18 16:19 35.164320 -114.556235 86 702ft 0kts
18-Jun-18 16:20 35.164320 -114.556235 86 702ft 0kts
18-Jun-18 16:21 35.164320 -114.556235 86 702ft 0kts
18-Jun-18 16:22 35.164320 -114.556235 86 702ft 0kts
18-Jun-18 16:23 35.164320 -114.556235 86 702ft 0kts

Navigation Log

Ident Type
Flight plan parsing failed, navigation log unavailable